<?xml version="1.0" encoding="UTF-8" standalone="no" ?>
<gpx xmlns="http://www.topografix.com/GPX/1/1" xmlns:xsi="http://www.w3.org/2001/XMLSchema-instance" xsi:schemaLocation="http://www.topografix.com/GPX/1/1 http://www.topografix.com/GPX/1/1/gpx.xsd" version="1.1" creator="VisuGPX - https://www.visugpx.com">
  <metadata>
    <name>cascade des anglais</name>
  </metadata>
  <trk>
    <name><![CDATA[2022-06-13 11:52:55]]></name>
    <trkseg>
      <trkpt lat="42.12793" lon="9.13367">
        <ele>924.45</ele>
        <time>2022-06-13T06:52:40Z</time>
      </trkpt>
      <trkpt lat="42.12792" lon="9.13366">
        <ele>924.45</ele>
        <time>2022-06-13T06:52:41Z</time>
      </trkpt>
      <trkpt lat="42.12791" lon="9.13366">
        <ele>924.45</ele>
        <time>2022-06-13T06:52:42Z</time>
      </trkpt>
      <trkpt lat="42.1278" lon="9.13355">
        <ele>927.81</ele>
        <time>2022-06-13T06:52:56Z</time>
      </trkpt>
      <trkpt lat="42.1278" lon="9.13355">
        <ele>925.41</ele>
        <time>2022-06-13T06:52:57Z</time>
      </trkpt>
      <trkpt lat="42.12785" lon="9.13324">
        <ele>927.33</ele>
        <time>2022-06-13T06:53:21Z</time>
      </trkpt>
      <trkpt lat="42.12779" lon="9.13321">
        <ele>929.73</ele>
        <time>2022-06-13T06:53:42Z</time>
      </trkpt>
      <trkpt lat="42.12777" lon="9.13326">
        <ele>930.69</ele>
        <time>2022-06-13T06:53:45Z</time>
      </trkpt>
      <trkpt lat="42.12757" lon="9.13317">
        <ele>932.62</ele>
        <time>2022-06-13T06:54:10Z</time>
      </trkpt>
      <trkpt lat="42.12757" lon="9.13314">
        <ele>933.1</ele>
        <time>2022-06-13T06:54:12Z</time>
      </trkpt>
      <trkpt lat="42.12745" lon="9.13281">
        <ele>935.98</ele>
        <time>2022-06-13T06:54:38Z</time>
      </trkpt>
      <trkpt lat="42.12732" lon="9.13248">
        <ele>937.42</ele>
        <time>2022-06-13T06:55:04Z</time>
      </trkpt>
      <trkpt lat="42.12725" lon="9.13234">
        <ele>938.86</ele>
        <time>2022-06-13T06:55:29Z</time>
      </trkpt>
      <trkpt lat="42.12721" lon="9.13259">
        <ele>940.31</ele>
        <time>2022-06-13T06:55:49Z</time>
      </trkpt>
      <trkpt lat="42.12717" lon="9.13266">
        <ele>940.79</ele>
        <time>2022-06-13T06:55:55Z</time>
      </trkpt>
      <trkpt lat="42.12713" lon="9.13269">
        <ele>940.79</ele>
        <time>2022-06-13T06:55:58Z</time>
      </trkpt>
      <trkpt lat="42.12702" lon="9.13283">
        <ele>943.19</ele>
        <time>2022-06-13T06:56:19Z</time>
      </trkpt>
      <trkpt lat="42.12697" lon="9.13266">
        <ele>944.63</ele>
        <time>2022-06-13T06:56:41Z</time>
      </trkpt>
      <trkpt lat="42.12686" lon="9.1324">
        <ele>946.07</ele>
        <time>2022-06-13T06:57:04Z</time>
      </trkpt>
      <trkpt lat="42.12688" lon="9.13205">
        <ele>947.52</ele>
        <time>2022-06-13T06:57:28Z</time>
      </trkpt>
      <trkpt lat="42.12681" lon="9.13172">
        <ele>948</ele>
        <time>2022-06-13T06:57:50Z</time>
      </trkpt>
      <trkpt lat="42.12675" lon="9.13165">
        <ele>948.48</ele>
        <time>2022-06-13T06:57:59Z</time>
      </trkpt>
      <trkpt lat="42.12651" lon="9.13149">
        <ele>949.44</ele>
        <time>2022-06-13T06:58:27Z</time>
      </trkpt>
      <trkpt lat="42.12632" lon="9.13133">
        <ele>949.92</ele>
        <time>2022-06-13T06:58:53Z</time>
      </trkpt>
      <trkpt lat="42.12617" lon="9.1313">
        <ele>948.96</ele>
        <time>2022-06-13T06:59:06Z</time>
      </trkpt>
      <trkpt lat="42.12628" lon="9.13113">
        <ele>948.96</ele>
        <time>2022-06-13T06:59:39Z</time>
      </trkpt>
      <trkpt lat="42.12623" lon="9.13106">
        <ele>949.44</ele>
        <time>2022-06-13T07:00:06Z</time>
      </trkpt>
      <trkpt lat="42.12615" lon="9.13113">
        <ele>949.44</ele>
        <time>2022-06-13T07:00:39Z</time>
      </trkpt>
      <trkpt lat="42.12588" lon="9.13124">
        <ele>949.44</ele>
        <time>2022-06-13T07:01:07Z</time>
      </trkpt>
      <trkpt lat="42.12584" lon="9.13127">
        <ele>950.88</ele>
        <time>2022-06-13T07:01:19Z</time>
      </trkpt>
      <trkpt lat="42.12572" lon="9.13118">
        <ele>952.32</ele>
        <time>2022-06-13T07:01:49Z</time>
      </trkpt>
      <trkpt lat="42.12568" lon="9.13103">
        <ele>952.8</ele>
        <time>2022-06-13T07:02:20Z</time>
      </trkpt>
      <trkpt lat="42.12579" lon="9.13103">
        <ele>953.28</ele>
        <time>2022-06-13T07:02:50Z</time>
      </trkpt>
      <trkpt lat="42.12553" lon="9.13078">
        <ele>953.77</ele>
        <time>2022-06-13T07:03:24Z</time>
      </trkpt>
      <trkpt lat="42.1255" lon="9.13067">
        <ele>956.17</ele>
        <time>2022-06-13T07:03:52Z</time>
      </trkpt>
      <trkpt lat="42.12578" lon="9.13056">
        <ele>954.25</ele>
        <time>2022-06-13T07:04:17Z</time>
      </trkpt>
      <trkpt lat="42.12601" lon="9.13054">
        <ele>952.32</ele>
        <time>2022-06-13T07:04:42Z</time>
      </trkpt>
      <trkpt lat="42.12622" lon="9.13039">
        <ele>952.32</ele>
        <time>2022-06-13T07:05:09Z</time>
      </trkpt>
      <trkpt lat="42.1263" lon="9.13037">
        <ele>953.28</ele>
        <time>2022-06-13T07:05:21Z</time>
      </trkpt>
      <trkpt lat="42.12642" lon="9.1302">
        <ele>953.28</ele>
        <time>2022-06-13T07:05:43Z</time>
      </trkpt>
      <trkpt lat="42.12649" lon="9.13004">
        <ele>954.25</ele>
        <time>2022-06-13T07:06:10Z</time>
      </trkpt>
      <trkpt lat="42.12647" lon="9.12998">
        <ele>953.28</ele>
        <time>2022-06-13T07:06:20Z</time>
      </trkpt>
      <trkpt lat="42.12629" lon="9.12988">
        <ele>951.84</ele>
        <time>2022-06-13T07:06:46Z</time>
      </trkpt>
      <trkpt lat="42.12628" lon="9.12956">
        <ele>951.36</ele>
        <time>2022-06-13T07:07:11Z</time>
      </trkpt>
      <trkpt lat="42.1263" lon="9.1294">
        <ele>952.8</ele>
        <time>2022-06-13T07:07:34Z</time>
      </trkpt>
      <trkpt lat="42.12636" lon="9.12919">
        <ele>955.69</ele>
        <time>2022-06-13T07:08:05Z</time>
      </trkpt>
      <trkpt lat="42.12638" lon="9.12903">
        <ele>958.09</ele>
        <time>2022-06-13T07:08:29Z</time>
      </trkpt>
      <trkpt lat="42.1263" lon="9.12901">
        <ele>959.53</ele>
        <time>2022-06-13T07:08:53Z</time>
      </trkpt>
      <trkpt lat="42.12615" lon="9.12898">
        <ele>960.49</ele>
        <time>2022-06-13T07:09:16Z</time>
      </trkpt>
      <trkpt lat="42.12593" lon="9.12904">
        <ele>961.94</ele>
        <time>2022-06-13T07:09:39Z</time>
      </trkpt>
      <trkpt lat="42.12565" lon="9.12906">
        <ele>962.42</ele>
        <time>2022-06-13T07:10:08Z</time>
      </trkpt>
      <trkpt lat="42.12544" lon="9.12901">
        <ele>963.38</ele>
        <time>2022-06-13T07:10:34Z</time>
      </trkpt>
      <trkpt lat="42.12528" lon="9.12895">
        <ele>964.82</ele>
        <time>2022-06-13T07:11:00Z</time>
      </trkpt>
      <trkpt lat="42.12503" lon="9.12893">
        <ele>966.26</ele>
        <time>2022-06-13T07:11:23Z</time>
      </trkpt>
      <trkpt lat="42.12497" lon="9.12891">
        <ele>966.74</ele>
        <time>2022-06-13T07:11:29Z</time>
      </trkpt>
      <trkpt lat="42.12486" lon="9.12887">
        <ele>967.22</ele>
        <time>2022-06-13T07:11:41Z</time>
      </trkpt>
      <trkpt lat="42.12452" lon="9.12861">
        <ele>968.67</ele>
        <time>2022-06-13T07:12:10Z</time>
      </trkpt>
      <trkpt lat="42.12428" lon="9.12847">
        <ele>970.11</ele>
        <time>2022-06-13T07:12:36Z</time>
      </trkpt>
      <trkpt lat="42.12413" lon="9.12833">
        <ele>970.59</ele>
        <time>2022-06-13T07:12:52Z</time>
      </trkpt>
      <trkpt lat="42.12389" lon="9.12823">
        <ele>971.55</ele>
        <time>2022-06-13T07:13:15Z</time>
      </trkpt>
      <trkpt lat="42.12366" lon="9.12824">
        <ele>972.51</ele>
        <time>2022-06-13T07:13:40Z</time>
      </trkpt>
      <trkpt lat="42.12345" lon="9.12835">
        <ele>972.99</ele>
        <time>2022-06-13T07:14:05Z</time>
      </trkpt>
      <trkpt lat="42.12328" lon="9.12846">
        <ele>973.95</ele>
        <time>2022-06-13T07:14:23Z</time>
      </trkpt>
      <trkpt lat="42.12309" lon="9.12854">
        <ele>973.95</ele>
        <time>2022-06-13T07:14:45Z</time>
      </trkpt>
      <trkpt lat="42.12288" lon="9.12868">
        <ele>973.95</ele>
        <time>2022-06-13T07:15:10Z</time>
      </trkpt>
      <trkpt lat="42.12267" lon="9.12881">
        <ele>973.95</ele>
        <time>2022-06-13T07:15:34Z</time>
      </trkpt>
      <trkpt lat="42.12258" lon="9.12877">
        <ele>973.95</ele>
        <time>2022-06-13T07:16:02Z</time>
      </trkpt>
      <trkpt lat="42.12262" lon="9.12867">
        <ele>973.95</ele>
        <time>2022-06-13T07:16:33Z</time>
      </trkpt>
      <trkpt lat="42.12256" lon="9.12859">
        <ele>974.91</ele>
        <time>2022-06-13T07:16:54Z</time>
      </trkpt>
      <trkpt lat="42.12234" lon="9.12859">
        <ele>975.88</ele>
        <time>2022-06-13T07:17:19Z</time>
      </trkpt>
      <trkpt lat="42.12214" lon="9.12854">
        <ele>977.32</ele>
        <time>2022-06-13T07:17:45Z</time>
      </trkpt>
      <trkpt lat="42.12199" lon="9.12838">
        <ele>976.84</ele>
        <time>2022-06-13T07:18:05Z</time>
      </trkpt>
      <trkpt lat="42.12183" lon="9.1282">
        <ele>975.88</ele>
        <time>2022-06-13T07:18:18Z</time>
      </trkpt>
      <trkpt lat="42.12181" lon="9.12819">
        <ele>981.64</ele>
        <time>2022-06-13T07:18:20Z</time>
      </trkpt>
      <trkpt lat="42.1218" lon="9.12818">
        <ele>980.2</ele>
        <time>2022-06-13T07:18:21Z</time>
      </trkpt>
      <trkpt lat="42.12177" lon="9.12817">
        <ele>978.28</ele>
        <time>2022-06-13T07:18:25Z</time>
      </trkpt>
      <trkpt lat="42.12172" lon="9.12809">
        <ele>978.28</ele>
        <time>2022-06-13T07:18:48Z</time>
      </trkpt>
      <trkpt lat="42.12169" lon="9.12806">
        <ele>980.2</ele>
        <time>2022-06-13T07:18:51Z</time>
      </trkpt>
      <trkpt lat="42.12154" lon="9.12793">
        <ele>980.68</ele>
        <time>2022-06-13T07:19:17Z</time>
      </trkpt>
      <trkpt lat="42.12138" lon="9.12779">
        <ele>982.12</ele>
        <time>2022-06-13T07:19:43Z</time>
      </trkpt>
      <trkpt lat="42.12113" lon="9.12761">
        <ele>983.57</ele>
        <time>2022-06-13T07:20:10Z</time>
      </trkpt>
      <trkpt lat="42.12096" lon="9.1274">
        <ele>985.49</ele>
        <time>2022-06-13T07:20:34Z</time>
      </trkpt>
      <trkpt lat="42.12087" lon="9.12711">
        <ele>986.93</ele>
        <time>2022-06-13T07:21:03Z</time>
      </trkpt>
      <trkpt lat="42.12079" lon="9.12683">
        <ele>988.85</ele>
        <time>2022-06-13T07:21:30Z</time>
      </trkpt>
      <trkpt lat="42.12069" lon="9.12661">
        <ele>990.3</ele>
        <time>2022-06-13T07:21:51Z</time>
      </trkpt>
      <trkpt lat="42.12063" lon="9.12637">
        <ele>992.7</ele>
        <time>2022-06-13T07:22:18Z</time>
      </trkpt>
      <trkpt lat="42.12054" lon="9.12607">
        <ele>994.14</ele>
        <time>2022-06-13T07:22:43Z</time>
      </trkpt>
      <trkpt lat="42.12051" lon="9.12584">
        <ele>995.58</ele>
        <time>2022-06-13T07:23:08Z</time>
      </trkpt>
      <trkpt lat="42.12051" lon="9.12564">
        <ele>997.02</ele>
        <time>2022-06-13T07:23:31Z</time>
      </trkpt>
      <trkpt lat="42.12057" lon="9.12538">
        <ele>998.95</ele>
        <time>2022-06-13T07:23:57Z</time>
      </trkpt>
      <trkpt lat="42.12064" lon="9.12521">
        <ele>1000.87</ele>
        <time>2022-06-13T07:24:24Z</time>
      </trkpt>
      <trkpt lat="42.12079" lon="9.12513">
        <ele>1002.79</ele>
        <time>2022-06-13T07:24:50Z</time>
      </trkpt>
      <trkpt lat="42.12085" lon="9.12516">
        <ele>1004.72</ele>
        <time>2022-06-13T07:25:16Z</time>
      </trkpt>
      <trkpt lat="42.12086" lon="9.12519">
        <ele>1005.68</ele>
        <time>2022-06-13T07:25:42Z</time>
      </trkpt>
      <trkpt lat="42.12074" lon="9.12494">
        <ele>1007.12</ele>
        <time>2022-06-13T07:26:08Z</time>
      </trkpt>
      <trkpt lat="42.1208" lon="9.12481">
        <ele>1007.6</ele>
        <time>2022-06-13T07:26:43Z</time>
      </trkpt>
      <trkpt lat="42.12069" lon="9.12465">
        <ele>1008.08</ele>
        <time>2022-06-13T07:27:29Z</time>
      </trkpt>
      <trkpt lat="42.12068" lon="9.12463">
        <ele>1008.08</ele>
        <time>2022-06-13T07:28:08Z</time>
      </trkpt>
      <trkpt lat="42.12059" lon="9.12442">
        <ele>1010.48</ele>
        <time>2022-06-13T07:28:35Z</time>
      </trkpt>
      <trkpt lat="42.12053" lon="9.12418">
        <ele>1012.89</ele>
        <time>2022-06-13T07:29:00Z</time>
      </trkpt>
      <trkpt lat="42.12046" lon="9.12401">
        <ele>1013.85</ele>
        <time>2022-06-13T07:29:27Z</time>
      </trkpt>
      <trkpt lat="42.12037" lon="9.1238">
        <ele>1014.81</ele>
        <time>2022-06-13T07:29:57Z</time>
      </trkpt>
      <trkpt lat="42.12031" lon="9.12367">
        <ele>1015.77</ele>
        <time>2022-06-13T07:30:34Z</time>
      </trkpt>
      <trkpt lat="42.12018" lon="9.12354">
        <ele>1017.21</ele>
        <time>2022-06-13T07:30:58Z</time>
      </trkpt>
      <trkpt lat="42.12005" lon="9.12337">
        <ele>1018.65</ele>
        <time>2022-06-13T07:31:22Z</time>
      </trkpt>
      <trkpt lat="42.12005" lon="9.12329">
        <ele>1020.1</ele>
        <time>2022-06-13T07:31:47Z</time>
      </trkpt>
      <trkpt lat="42.11984" lon="9.12309">
        <ele>1021.06</ele>
        <time>2022-06-13T07:32:09Z</time>
      </trkpt>
      <trkpt lat="42.11967" lon="9.12303">
        <ele>1022.98</ele>
        <time>2022-06-13T07:32:36Z</time>
      </trkpt>
      <trkpt lat="42.11947" lon="9.12294">
        <ele>1023.94</ele>
        <time>2022-06-13T07:32:59Z</time>
      </trkpt>
      <trkpt lat="42.11932" lon="9.12274">
        <ele>1026.34</ele>
        <time>2022-06-13T07:33:22Z</time>
      </trkpt>
      <trkpt lat="42.11927" lon="9.12255">
        <ele>1026.34</ele>
        <time>2022-06-13T07:33:45Z</time>
      </trkpt>
      <trkpt lat="42.11926" lon="9.1225">
        <ele>1028.27</ele>
        <time>2022-06-13T07:33:49Z</time>
      </trkpt>
      <trkpt lat="42.11926" lon="9.12246">
        <ele>1028.27</ele>
        <time>2022-06-13T07:33:56Z</time>
      </trkpt>
      <trkpt lat="42.11918" lon="9.12225">
        <ele>1029.71</ele>
        <time>2022-06-13T07:34:18Z</time>
      </trkpt>
      <trkpt lat="42.11907" lon="9.12189">
        <ele>1031.63</ele>
        <time>2022-06-13T07:34:41Z</time>
      </trkpt>
      <trkpt lat="42.11898" lon="9.12165">
        <ele>1033.07</ele>
        <time>2022-06-13T07:35:06Z</time>
      </trkpt>
      <trkpt lat="42.11895" lon="9.12145">
        <ele>1035</ele>
        <time>2022-06-13T07:35:33Z</time>
      </trkpt>
      <trkpt lat="42.11888" lon="9.12123">
        <ele>1036.44</ele>
        <time>2022-06-13T07:35:57Z</time>
      </trkpt>
      <trkpt lat="42.11868" lon="9.12101">
        <ele>1038.36</ele>
        <time>2022-06-13T07:36:26Z</time>
      </trkpt>
      <trkpt lat="42.11848" lon="9.12099">
        <ele>1039.8</ele>
        <time>2022-06-13T07:36:48Z</time>
      </trkpt>
      <trkpt lat="42.11837" lon="9.12083">
        <ele>1042.21</ele>
        <time>2022-06-13T07:37:12Z</time>
      </trkpt>
      <trkpt lat="42.11826" lon="9.12056">
        <ele>1043.65</ele>
        <time>2022-06-13T07:37:40Z</time>
      </trkpt>
      <trkpt lat="42.11803" lon="9.12042">
        <ele>1045.09</ele>
        <time>2022-06-13T07:38:04Z</time>
      </trkpt>
      <trkpt lat="42.11781" lon="9.12011">
        <ele>1047.01</ele>
        <time>2022-06-13T07:38:32Z</time>
      </trkpt>
      <trkpt lat="42.11775" lon="9.11981">
        <ele>1047.97</ele>
        <time>2022-06-13T07:38:57Z</time>
      </trkpt>
      <trkpt lat="42.11763" lon="9.11956">
        <ele>1049.42</ele>
        <time>2022-06-13T07:39:20Z</time>
      </trkpt>
      <trkpt lat="42.1175" lon="9.11923">
        <ele>1050.38</ele>
        <time>2022-06-13T07:39:47Z</time>
      </trkpt>
      <trkpt lat="42.11747" lon="9.11896">
        <ele>1052.3</ele>
        <time>2022-06-13T07:40:17Z</time>
      </trkpt>
      <trkpt lat="42.11748" lon="9.1187">
        <ele>1052.3</ele>
        <time>2022-06-13T07:40:46Z</time>
      </trkpt>
      <trkpt lat="42.11748" lon="9.11843">
        <ele>1052.78</ele>
        <time>2022-06-13T07:41:13Z</time>
      </trkpt>
      <trkpt lat="42.11742" lon="9.11819">
        <ele>1053.74</ele>
        <time>2022-06-13T07:41:43Z</time>
      </trkpt>
      <trkpt lat="42.11742" lon="9.11814">
        <ele>1055.18</ele>
        <time>2022-06-13T07:41:47Z</time>
      </trkpt>
      <trkpt lat="42.11741" lon="9.11788">
        <ele>1055.67</ele>
        <time>2022-06-13T07:42:16Z</time>
      </trkpt>
      <trkpt lat="42.11739" lon="9.11763">
        <ele>1057.11</ele>
        <time>2022-06-13T07:42:41Z</time>
      </trkpt>
      <trkpt lat="42.11734" lon="9.11742">
        <ele>1058.55</ele>
        <time>2022-06-13T07:43:04Z</time>
      </trkpt>
      <trkpt lat="42.11723" lon="9.11724">
        <ele>1059.51</ele>
        <time>2022-06-13T07:43:28Z</time>
      </trkpt>
      <trkpt lat="42.11709" lon="9.11705">
        <ele>1059.51</ele>
        <time>2022-06-13T07:43:54Z</time>
      </trkpt>
      <trkpt lat="42.11701" lon="9.11683">
        <ele>1061.91</ele>
        <time>2022-06-13T07:44:17Z</time>
      </trkpt>
      <trkpt lat="42.11691" lon="9.1166">
        <ele>1062.87</ele>
        <time>2022-06-13T07:44:40Z</time>
      </trkpt>
      <trkpt lat="42.11684" lon="9.1164">
        <ele>1063.84</ele>
        <time>2022-06-13T07:45:06Z</time>
      </trkpt>
      <trkpt lat="42.11688" lon="9.11623">
        <ele>1064.32</ele>
        <time>2022-06-13T07:45:42Z</time>
      </trkpt>
      <trkpt lat="42.11698" lon="9.11599">
        <ele>1065.28</ele>
        <time>2022-06-13T07:46:06Z</time>
      </trkpt>
      <trkpt lat="42.11695" lon="9.11578">
        <ele>1065.76</ele>
        <time>2022-06-13T07:46:29Z</time>
      </trkpt>
      <trkpt lat="42.11695" lon="9.11562">
        <ele>1065.76</ele>
        <time>2022-06-13T07:46:52Z</time>
      </trkpt>
      <trkpt lat="42.11702" lon="9.11533">
        <ele>1066.24</ele>
        <time>2022-06-13T07:47:15Z</time>
      </trkpt>
      <trkpt lat="42.11713" lon="9.11516">
        <ele>1067.2</ele>
        <time>2022-06-13T07:47:38Z</time>
      </trkpt>
      <trkpt lat="42.11726" lon="9.11513">
        <ele>1068.16</ele>
        <time>2022-06-13T07:48:02Z</time>
      </trkpt>
      <trkpt lat="42.1174" lon="9.11523">
        <ele>1071.53</ele>
        <time>2022-06-13T07:48:21Z</time>
      </trkpt>
      <trkpt lat="42.1175" lon="9.11519">
        <ele>1073.45</ele>
        <time>2022-06-13T07:48:47Z</time>
      </trkpt>
      <trkpt lat="42.1174" lon="9.11499">
        <ele>1073.93</ele>
        <time>2022-06-13T07:49:13Z</time>
      </trkpt>
      <trkpt lat="42.11736" lon="9.11482">
        <ele>1074.41</ele>
        <time>2022-06-13T07:49:39Z</time>
      </trkpt>
      <trkpt lat="42.11732" lon="9.11457">
        <ele>1076.33</ele>
        <time>2022-06-13T07:50:01Z</time>
      </trkpt>
      <trkpt lat="42.11728" lon="9.11429">
        <ele>1078.74</ele>
        <time>2022-06-13T07:50:27Z</time>
      </trkpt>
      <trkpt lat="42.11721" lon="9.11409">
        <ele>1080.18</ele>
        <time>2022-06-13T07:50:54Z</time>
      </trkpt>
      <trkpt lat="42.11713" lon="9.11385">
        <ele>1081.14</ele>
        <time>2022-06-13T07:51:18Z</time>
      </trkpt>
      <trkpt lat="42.11708" lon="9.11359">
        <ele>1082.1</ele>
        <time>2022-06-13T07:51:40Z</time>
      </trkpt>
      <trkpt lat="42.11709" lon="9.11362">
        <ele>1082.58</ele>
        <time>2022-06-13T07:52:08Z</time>
      </trkpt>
      <trkpt lat="42.11704" lon="9.11378">
        <ele>1082.58</ele>
        <time>2022-06-13T07:52:45Z</time>
      </trkpt>
      <trkpt lat="42.11705" lon="9.11377">
        <ele>1081.14</ele>
        <time>2022-06-13T07:52:57Z</time>
      </trkpt>
      <trkpt lat="42.11709" lon="9.11378">
        <ele>1081.14</ele>
        <time>2022-06-13T07:53:34Z</time>
      </trkpt>
      <trkpt lat="42.11709" lon="9.11376">
        <ele>1082.58</ele>
        <time>2022-06-13T07:53:45Z</time>
      </trkpt>
      <trkpt lat="42.11704" lon="9.11358">
        <ele>1081.14</ele>
        <time>2022-06-13T07:54:20Z</time>
      </trkpt>
      <trkpt lat="42.11693" lon="9.11346">
        <ele>1081.14</ele>
        <time>2022-06-13T07:54:41Z</time>
      </trkpt>
      <trkpt lat="42.1169" lon="9.11343">
        <ele>1082.58</ele>
        <time>2022-06-13T07:54:45Z</time>
      </trkpt>
      <trkpt lat="42.1168" lon="9.11326">
        <ele>1084.02</ele>
        <time>2022-06-13T07:55:06Z</time>
      </trkpt>
      <trkpt lat="42.11672" lon="9.11298">
        <ele>1084.02</ele>
        <time>2022-06-13T07:55:29Z</time>
      </trkpt>
      <trkpt lat="42.11664" lon="9.1128">
        <ele>1084.99</ele>
        <time>2022-06-13T07:55:52Z</time>
      </trkpt>
      <trkpt lat="42.11652" lon="9.11268">
        <ele>1084.02</ele>
        <time>2022-06-13T07:56:18Z</time>
      </trkpt>
      <trkpt lat="42.11647" lon="9.11257">
        <ele>1082.58</ele>
        <time>2022-06-13T07:56:42Z</time>
      </trkpt>
      <trkpt lat="42.11641" lon="9.11257">
        <ele>1083.54</ele>
        <time>2022-06-13T07:57:02Z</time>
      </trkpt>
      <trkpt lat="42.11637" lon="9.11259">
        <ele>1082.1</ele>
        <time>2022-06-13T07:57:06Z</time>
      </trkpt>
      <trkpt lat="42.1163" lon="9.11247">
        <ele>1082.1</ele>
        <time>2022-06-13T07:57:27Z</time>
      </trkpt>
      <trkpt lat="42.11632" lon="9.11235">
        <ele>1082.1</ele>
        <time>2022-06-13T07:57:56Z</time>
      </trkpt>
      <trkpt lat="42.11624" lon="9.11232">
        <ele>1082.1</ele>
        <time>2022-06-13T07:58:24Z</time>
      </trkpt>
      <trkpt lat="42.11635" lon="9.11221">
        <ele>1082.1</ele>
        <time>2022-06-13T07:58:56Z</time>
      </trkpt>
      <trkpt lat="42.11633" lon="9.11225">
        <ele>1083.54</ele>
        <time>2022-06-13T07:59:33Z</time>
      </trkpt>
      <trkpt lat="42.11631" lon="9.11231">
        <ele>1082.58</ele>
        <time>2022-06-13T08:00:10Z</time>
      </trkpt>
      <trkpt lat="42.11629" lon="9.11231">
        <ele>1084.02</ele>
        <time>2022-06-13T08:00:12Z</time>
      </trkpt>
      <trkpt lat="42.11625" lon="9.1123">
        <ele>1083.54</ele>
        <time>2022-06-13T08:00:41Z</time>
      </trkpt>
      <trkpt lat="42.11624" lon="9.11218">
        <ele>1084.99</ele>
        <time>2022-06-13T08:01:02Z</time>
      </trkpt>
      <trkpt lat="42.11618" lon="9.11196">
        <ele>1085.47</ele>
        <time>2022-06-13T08:01:26Z</time>
      </trkpt>
      <trkpt lat="42.11618" lon="9.11187">
        <ele>1086.43</ele>
        <time>2022-06-13T08:01:47Z</time>
      </trkpt>
      <trkpt lat="42.11624" lon="9.11191">
        <ele>1086.91</ele>
        <time>2022-06-13T08:02:15Z</time>
      </trkpt>
      <trkpt lat="42.11608" lon="9.11179">
        <ele>1088.83</ele>
        <time>2022-06-13T08:02:39Z</time>
      </trkpt>
      <trkpt lat="42.11602" lon="9.11151">
        <ele>1091.23</ele>
        <time>2022-06-13T08:03:07Z</time>
      </trkpt>
      <trkpt lat="42.116" lon="9.11127">
        <ele>1094.6</ele>
        <time>2022-06-13T08:03:34Z</time>
      </trkpt>
      <trkpt lat="42.11603" lon="9.11111">
        <ele>1095.56</ele>
        <time>2022-06-13T08:03:59Z</time>
      </trkpt>
      <trkpt lat="42.11608" lon="9.11093">
        <ele>1097.96</ele>
        <time>2022-06-13T08:04:27Z</time>
      </trkpt>
      <trkpt lat="42.1162" lon="9.11086">
        <ele>1099.89</ele>
        <time>2022-06-13T08:04:54Z</time>
      </trkpt>
      <trkpt lat="42.11632" lon="9.11086">
        <ele>1098.92</ele>
        <time>2022-06-13T08:05:25Z</time>
      </trkpt>
      <trkpt lat="42.11632" lon="9.11078">
        <ele>1098.92</ele>
        <time>2022-06-13T08:05:55Z</time>
      </trkpt>
      <trkpt lat="42.11634" lon="9.11073">
        <ele>1100.37</ele>
        <time>2022-06-13T08:06:21Z</time>
      </trkpt>
      <trkpt lat="42.11644" lon="9.11065">
        <ele>1101.33</ele>
        <time>2022-06-13T08:06:47Z</time>
      </trkpt>
      <trkpt lat="42.11654" lon="9.11047">
        <ele>1102.77</ele>
        <time>2022-06-13T08:07:27Z</time>
      </trkpt>
      <trkpt lat="42.11666" lon="9.11048">
        <ele>1104.69</ele>
        <time>2022-06-13T08:07:55Z</time>
      </trkpt>
      <trkpt lat="42.1166" lon="9.1105">
        <ele>1105.65</ele>
        <time>2022-06-13T08:08:28Z</time>
      </trkpt>
      <trkpt lat="42.11659" lon="9.11048">
        <ele>1106.61</ele>
        <time>2022-06-13T08:08:56Z</time>
      </trkpt>
      <trkpt lat="42.11655" lon="9.11039">
        <ele>1108.54</ele>
        <time>2022-06-13T08:09:18Z</time>
      </trkpt>
      <trkpt lat="42.11659" lon="9.11021">
        <ele>1109.98</ele>
        <time>2022-06-13T08:09:42Z</time>
      </trkpt>
      <trkpt lat="42.11667" lon="9.11009">
        <ele>1112.38</ele>
        <time>2022-06-13T08:10:11Z</time>
      </trkpt>
      <trkpt lat="42.11679" lon="9.10997">
        <ele>1113.82</ele>
        <time>2022-06-13T08:10:32Z</time>
      </trkpt>
      <trkpt lat="42.11692" lon="9.10992">
        <ele>1114.79</ele>
        <time>2022-06-13T08:10:54Z</time>
      </trkpt>
      <trkpt lat="42.11702" lon="9.10985">
        <ele>1116.23</ele>
        <time>2022-06-13T08:11:25Z</time>
      </trkpt>
      <trkpt lat="42.11713" lon="9.10982">
        <ele>1117.19</ele>
        <time>2022-06-13T08:11:50Z</time>
      </trkpt>
      <trkpt lat="42.11709" lon="9.10967">
        <ele>1119.59</ele>
        <time>2022-06-13T08:12:15Z</time>
      </trkpt>
      <trkpt lat="42.11726" lon="9.10972">
        <ele>1119.59</ele>
        <time>2022-06-13T08:12:38Z</time>
      </trkpt>
      <trkpt lat="42.11736" lon="9.10984">
        <ele>1120.07</ele>
        <time>2022-06-13T08:12:59Z</time>
      </trkpt>
      <trkpt lat="42.1173" lon="9.1098">
        <ele>1118.63</ele>
        <time>2022-06-13T08:13:18Z</time>
      </trkpt>
      <trkpt lat="42.11718" lon="9.10969">
        <ele>1120.07</ele>
        <time>2022-06-13T08:13:53Z</time>
      </trkpt>
      <trkpt lat="42.11718" lon="9.10969">
        <ele>1120.07</ele>
        <time>2022-06-13T08:13:54Z</time>
      </trkpt>
      <trkpt lat="42.11718" lon="9.10959">
        <ele>1122.48</ele>
        <time>2022-06-13T08:14:17Z</time>
      </trkpt>
      <trkpt lat="42.1172" lon="9.10951">
        <ele>1125.36</ele>
        <time>2022-06-13T08:14:39Z</time>
      </trkpt>
      <trkpt lat="42.11728" lon="9.10943">
        <ele>1128.24</ele>
        <time>2022-06-13T08:15:07Z</time>
      </trkpt>
      <trkpt lat="42.11736" lon="9.10932">
        <ele>1130.17</ele>
        <time>2022-06-13T08:15:37Z</time>
      </trkpt>
      <trkpt lat="42.11743" lon="9.10928">
        <ele>1131.13</ele>
        <time>2022-06-13T08:16:07Z</time>
      </trkpt>
      <trkpt lat="42.11748" lon="9.10915">
        <ele>1133.05</ele>
        <time>2022-06-13T08:16:37Z</time>
      </trkpt>
      <trkpt lat="42.11749" lon="9.1091">
        <ele>1134.01</ele>
        <time>2022-06-13T08:17:02Z</time>
      </trkpt>
      <trkpt lat="42.11755" lon="9.10895">
        <ele>1136.42</ele>
        <time>2022-06-13T08:17:27Z</time>
      </trkpt>
      <trkpt lat="42.11767" lon="9.10891">
        <ele>1138.34</ele>
        <time>2022-06-13T08:17:53Z</time>
      </trkpt>
      <trkpt lat="42.11771" lon="9.10885">
        <ele>1138.82</ele>
        <time>2022-06-13T08:18:17Z</time>
      </trkpt>
      <trkpt lat="42.1178" lon="9.10874">
        <ele>1142.18</ele>
        <time>2022-06-13T08:18:46Z</time>
      </trkpt>
      <trkpt lat="42.1179" lon="9.10872">
        <ele>1144.59</ele>
        <time>2022-06-13T08:19:09Z</time>
      </trkpt>
      <trkpt lat="42.11806" lon="9.10888">
        <ele>1145.07</ele>
        <time>2022-06-13T08:19:32Z</time>
      </trkpt>
      <trkpt lat="42.11807" lon="9.10894">
        <ele>1143.14</ele>
        <time>2022-06-13T08:19:57Z</time>
      </trkpt>
      <trkpt lat="42.11814" lon="9.10901">
        <ele>1143.14</ele>
        <time>2022-06-13T08:20:18Z</time>
      </trkpt>
      <trkpt lat="42.11819" lon="9.10907">
        <ele>1142.18</ele>
        <time>2022-06-13T08:20:46Z</time>
      </trkpt>
      <trkpt lat="42.11819" lon="9.10907">
        <ele>1136.9</ele>
        <time>2022-06-13T08:20:47Z</time>
      </trkpt>
      <trkpt lat="42.11819" lon="9.10907">
        <ele>1144.59</ele>
        <time>2022-06-13T08:20:48Z</time>
      </trkpt>
      <trkpt lat="42.11819" lon="9.10908">
        <ele>1141.7</ele>
        <time>2022-06-13T08:20:50Z</time>
      </trkpt>
      <trkpt lat="42.11819" lon="9.10909">
        <ele>1141.7</ele>
        <time>2022-06-13T08:20:51Z</time>
      </trkpt>
      <trkpt lat="42.11821" lon="9.10896">
        <ele>1143.14</ele>
        <time>2022-06-13T08:21:08Z</time>
      </trkpt>
      <trkpt lat="42.11823" lon="9.10898">
        <ele>1141.7</ele>
        <time>2022-06-13T08:21:12Z</time>
      </trkpt>
      <trkpt lat="42.11818" lon="9.10901">
        <ele>1143.14</ele>
        <time>2022-06-13T08:21:26Z</time>
      </trkpt>
      <trkpt lat="42.11805" lon="9.10909">
        <ele>1142.66</ele>
        <time>2022-06-13T08:21:48Z</time>
      </trkpt>
      <trkpt lat="42.11815" lon="9.10908">
        <ele>1142.66</ele>
        <time>2022-06-13T08:22:06Z</time>
      </trkpt>
      <trkpt lat="42.1182" lon="9.10906">
        <ele>1142.66</ele>
        <time>2022-06-13T08:22:33Z</time>
      </trkpt>
      <trkpt lat="42.11807" lon="9.10906">
        <ele>1142.66</ele>
        <time>2022-06-13T08:23:00Z</time>
      </trkpt>
      <trkpt lat="42.11813" lon="9.10904">
        <ele>1143.14</ele>
        <time>2022-06-13T08:23:29Z</time>
      </trkpt>
      <trkpt lat="42.11812" lon="9.10904">
        <ele>1138.82</ele>
        <time>2022-06-13T08:23:40Z</time>
      </trkpt>
      <trkpt lat="42.11812" lon="9.10904">
        <ele>1145.55</ele>
        <time>2022-06-13T08:23:42Z</time>
      </trkpt>
      <trkpt lat="42.11812" lon="9.10904">
        <ele>1144.11</ele>
        <time>2022-06-13T08:23:43Z</time>
      </trkpt>
      <trkpt lat="42.11812" lon="9.10905">
        <ele>1140.74</ele>
        <time>2022-06-13T08:23:45Z</time>
      </trkpt>
      <trkpt lat="42.11812" lon="9.10905">
        <ele>1144.59</ele>
        <time>2022-06-13T08:23:46Z</time>
      </trkpt>
      <trkpt lat="42.11813" lon="9.10905">
        <ele>1139.3</ele>
        <time>2022-06-13T08:23:47Z</time>
      </trkpt>
      <trkpt lat="42.11813" lon="9.10905">
        <ele>1144.11</ele>
        <time>2022-06-13T08:23:48Z</time>
      </trkpt>
      <trkpt lat="42.11813" lon="9.10905">
        <ele>1147.95</ele>
        <time>2022-06-13T08:23:49Z</time>
      </trkpt>
      <trkpt lat="42.11813" lon="9.10905">
        <ele>1147.95</ele>
        <time>2022-06-13T08:23:50Z</time>
      </trkpt>
      <trkpt lat="42.11813" lon="9.10905">
        <ele>1145.55</ele>
        <time>2022-06-13T08:23:51Z</time>
      </trkpt>
      <trkpt lat="42.11814" lon="9.10905">
        <ele>1143.63</ele>
        <time>2022-06-13T08:23:54Z</time>
      </trkpt>
      <trkpt lat="42.11823" lon="9.10908">
        <ele>1143.14</ele>
        <time>2022-06-13T08:24:45Z</time>
      </trkpt>
      <trkpt lat="42.11821" lon="9.10909">
        <ele>1138.82</ele>
        <time>2022-06-13T08:25:03Z</time>
      </trkpt>
      <trkpt lat="42.11821" lon="9.10909">
        <ele>1143.63</ele>
        <time>2022-06-13T08:25:04Z</time>
      </trkpt>
      <trkpt lat="42.1182" lon="9.1091">
        <ele>1147.95</ele>
        <time>2022-06-13T08:25:06Z</time>
      </trkpt>
      <trkpt lat="42.1182" lon="9.1091">
        <ele>1144.59</ele>
        <time>2022-06-13T08:25:07Z</time>
      </trkpt>
      <trkpt lat="42.1182" lon="9.1091">
        <ele>1143.14</ele>
        <time>2022-06-13T08:25:09Z</time>
      </trkpt>
      <trkpt lat="42.11821" lon="9.10905">
        <ele>1145.07</ele>
        <time>2022-06-13T08:26:00Z</time>
      </trkpt>
      <trkpt lat="42.11821" lon="9.10904">
        <ele>1145.07</ele>
        <time>2022-06-13T08:26:01Z</time>
      </trkpt>
      <trkpt lat="42.11821" lon="9.10911">
        <ele>1144.11</ele>
        <time>2022-06-13T08:26:53Z</time>
      </trkpt>
      <trkpt lat="42.11824" lon="9.10911">
        <ele>1147.47</ele>
        <time>2022-06-13T08:27:05Z</time>
      </trkpt>
      <trkpt lat="42.11825" lon="9.10912">
        <ele>1147.47</ele>
        <time>2022-06-13T08:27:06Z</time>
      </trkpt>
      <trkpt lat="42.11825" lon="9.10913">
        <ele>1145.07</ele>
        <time>2022-06-13T08:27:10Z</time>
      </trkpt>
      <trkpt lat="42.11826" lon="9.10916">
        <ele>1139.3</ele>
        <time>2022-06-13T08:27:17Z</time>
      </trkpt>
      <trkpt lat="42.11826" lon="9.10916">
        <ele>1143.14</ele>
        <time>2022-06-13T08:27:18Z</time>
      </trkpt>
      <trkpt lat="42.11826" lon="9.10916">
        <ele>1146.99</ele>
        <time>2022-06-13T08:27:19Z</time>
      </trkpt>
      <trkpt lat="42.11827" lon="9.10916">
        <ele>1144.59</ele>
        <time>2022-06-13T08:27:23Z</time>
      </trkpt>
      <trkpt lat="42.11831" lon="9.10916">
        <ele>1142.66</ele>
        <time>2022-06-13T08:27:42Z</time>
      </trkpt>
      <trkpt lat="42.11831" lon="9.10916">
        <ele>1146.51</ele>
        <time>2022-06-13T08:27:46Z</time>
      </trkpt>
      <trkpt lat="42.11831" lon="9.10915">
        <ele>1145.07</ele>
        <time>2022-06-13T08:27:47Z</time>
      </trkpt>
      <trkpt lat="42.11829" lon="9.10913">
        <ele>1143.63</ele>
        <time>2022-06-13T08:27:52Z</time>
      </trkpt>
      <trkpt lat="42.11827" lon="9.10911">
        <ele>1149.87</ele>
        <time>2022-06-13T08:27:55Z</time>
      </trkpt>
      <trkpt lat="42.11827" lon="9.1091">
        <ele>1146.51</ele>
        <time>2022-06-13T08:27:56Z</time>
      </trkpt>
      <trkpt lat="42.11826" lon="9.10911">
        <ele>1145.07</ele>
        <time>2022-06-13T08:27:58Z</time>
      </trkpt>
      <trkpt lat="42.11838" lon="9.10906">
        <ele>1144.59</ele>
        <time>2022-06-13T08:28:59Z</time>
      </trkpt>
      <trkpt lat="42.11838" lon="9.10905">
        <ele>1146.99</ele>
        <time>2022-06-13T08:29:08Z</time>
      </trkpt>
      <trkpt lat="42.11838" lon="9.10905">
        <ele>1143.14</ele>
        <time>2022-06-13T08:29:09Z</time>
      </trkpt>
      <trkpt lat="42.11837" lon="9.10905">
        <ele>1145.07</ele>
        <time>2022-06-13T08:29:10Z</time>
      </trkpt>
      <trkpt lat="42.11821" lon="9.10903">
        <ele>1146.03</ele>
        <time>2022-06-13T08:29:22Z</time>
      </trkpt>
      <trkpt lat="42.1181" lon="9.10898">
        <ele>1146.99</ele>
        <time>2022-06-13T08:29:31Z</time>
      </trkpt>
      <trkpt lat="42.1179" lon="9.10883">
        <ele>1148.91</ele>
        <time>2022-06-13T08:29:51Z</time>
      </trkpt>
      <trkpt lat="42.11791" lon="9.10864">
        <ele>1152.76</ele>
        <time>2022-06-13T08:30:17Z</time>
      </trkpt>
      <trkpt lat="42.1179" lon="9.10852">
        <ele>1156.12</ele>
        <time>2022-06-13T08:30:34Z</time>
      </trkpt>
      <trkpt lat="42.11785" lon="9.10846">
        <ele>1159.49</ele>
        <time>2022-06-13T08:30:52Z</time>
      </trkpt>
      <trkpt lat="42.11781" lon="9.10843">
        <ele>1162.85</ele>
        <time>2022-06-13T08:31:07Z</time>
      </trkpt>
      <trkpt lat="42.11784" lon="9.10836">
        <ele>1166.22</ele>
        <time>2022-06-13T08:31:18Z</time>
      </trkpt>
      <trkpt lat="42.11788" lon="9.10833">
        <ele>1169.1</ele>
        <time>2022-06-13T08:31:33Z</time>
      </trkpt>
      <trkpt lat="42.11789" lon="9.1083">
        <ele>1171.02</ele>
        <time>2022-06-13T08:31:41Z</time>
      </trkpt>
      <trkpt lat="42.11791" lon="9.1082">
        <ele>1173.91</ele>
        <time>2022-06-13T08:31:59Z</time>
      </trkpt>
      <trkpt lat="42.11796" lon="9.10811">
        <ele>1176.31</ele>
        <time>2022-06-13T08:32:19Z</time>
      </trkpt>
      <trkpt lat="42.11792" lon="9.10804">
        <ele>1179.19</ele>
        <time>2022-06-13T08:32:37Z</time>
      </trkpt>
      <trkpt lat="42.11793" lon="9.108">
        <ele>1182.56</ele>
        <time>2022-06-13T08:33:02Z</time>
      </trkpt>
      <trkpt lat="42.118" lon="9.10793">
        <ele>1185.44</ele>
        <time>2022-06-13T08:33:18Z</time>
      </trkpt>
      <trkpt lat="42.11808" lon="9.10799">
        <ele>1182.08</ele>
        <time>2022-06-13T08:33:43Z</time>
      </trkpt>
      <trkpt lat="42.11811" lon="9.10806">
        <ele>1179.67</ele>
        <time>2022-06-13T08:34:03Z</time>
      </trkpt>
      <trkpt lat="42.11811" lon="9.10813">
        <ele>1176.31</ele>
        <time>2022-06-13T08:34:20Z</time>
      </trkpt>
      <trkpt lat="42.11806" lon="9.10815">
        <ele>1175.83</ele>
        <time>2022-06-13T08:34:41Z</time>
      </trkpt>
      <trkpt lat="42.118" lon="9.10822">
        <ele>1174.39</ele>
        <time>2022-06-13T08:34:59Z</time>
      </trkpt>
      <trkpt lat="42.11794" lon="9.10817">
        <ele>1173.91</ele>
        <time>2022-06-13T08:35:18Z</time>
      </trkpt>
      <trkpt lat="42.11791" lon="9.10822">
        <ele>1171.98</ele>
        <time>2022-06-13T08:35:32Z</time>
      </trkpt>
      <trkpt lat="42.11789" lon="9.10826">
        <ele>1168.62</ele>
        <time>2022-06-13T08:35:43Z</time>
      </trkpt>
      <trkpt lat="42.11789" lon="9.10829">
        <ele>1168.62</ele>
        <time>2022-06-13T08:35:47Z</time>
      </trkpt>
      <trkpt lat="42.11788" lon="9.10844">
        <ele>1164.77</ele>
        <time>2022-06-13T08:36:07Z</time>
      </trkpt>
      <trkpt lat="42.11785" lon="9.10842">
        <ele>1161.89</ele>
        <time>2022-06-13T08:36:27Z</time>
      </trkpt>
      <trkpt lat="42.11785" lon="9.10849">
        <ele>1158.53</ele>
        <time>2022-06-13T08:36:44Z</time>
      </trkpt>
      <trkpt lat="42.11775" lon="9.10849">
        <ele>1155.64</ele>
        <time>2022-06-13T08:37:05Z</time>
      </trkpt>
      <trkpt lat="42.11776" lon="9.10855">
        <ele>1152.28</ele>
        <time>2022-06-13T08:37:21Z</time>
      </trkpt>
      <trkpt lat="42.11781" lon="9.10871">
        <ele>1148.43</ele>
        <time>2022-06-13T08:37:37Z</time>
      </trkpt>
      <trkpt lat="42.11795" lon="9.10881">
        <ele>1148.91</ele>
        <time>2022-06-13T08:37:54Z</time>
      </trkpt>
      <trkpt lat="42.11811" lon="9.10893">
        <ele>1146.99</ele>
        <time>2022-06-13T08:38:10Z</time>
      </trkpt>
      <trkpt lat="42.11813" lon="9.109">
        <ele>1148.43</ele>
        <time>2022-06-13T08:38:18Z</time>
      </trkpt>
      <trkpt lat="42.11813" lon="9.10903">
        <ele>1146.99</ele>
        <time>2022-06-13T08:38:27Z</time>
      </trkpt>
      <trkpt lat="42.11814" lon="9.109">
        <ele>1146.51</ele>
        <time>2022-06-13T08:38:51Z</time>
      </trkpt>
      <trkpt lat="42.11816" lon="9.10905">
        <ele>1137.86</ele>
        <time>2022-06-13T08:39:02Z</time>
      </trkpt>
      <trkpt lat="42.11816" lon="9.10905">
        <ele>1152.28</ele>
        <time>2022-06-13T08:39:03Z</time>
      </trkpt>
      <trkpt lat="42.11816" lon="9.10906">
        <ele>1147.47</ele>
        <time>2022-06-13T08:39:04Z</time>
      </trkpt>
      <trkpt lat="42.11817" lon="9.10906">
        <ele>1146.99</ele>
        <time>2022-06-13T08:39:06Z</time>
      </trkpt>
      <trkpt lat="42.11815" lon="9.10904">
        <ele>1145.55</ele>
        <time>2022-06-13T08:39:30Z</time>
      </trkpt>
      <trkpt lat="42.11801" lon="9.10888">
        <ele>1147.47</ele>
        <time>2022-06-13T08:39:59Z</time>
      </trkpt>
      <trkpt lat="42.11786" lon="9.10874">
        <ele>1148.43</ele>
        <time>2022-06-13T08:40:20Z</time>
      </trkpt>
      <trkpt lat="42.11781" lon="9.10873">
        <ele>1125.84</ele>
        <time>2022-06-13T08:40:27Z</time>
      </trkpt>
      <trkpt lat="42.11782" lon="9.10873">
        <ele>1142.66</ele>
        <time>2022-06-13T08:40:28Z</time>
      </trkpt>
      <trkpt lat="42.11781" lon="9.10872">
        <ele>1146.03</ele>
        <time>2022-06-13T08:40:29Z</time>
      </trkpt>
      <trkpt lat="42.11781" lon="9.10871">
        <ele>1147.47</ele>
        <time>2022-06-13T08:40:31Z</time>
      </trkpt>
      <trkpt lat="42.11781" lon="9.1087">
        <ele>1144.59</ele>
        <time>2022-06-13T08:40:33Z</time>
      </trkpt>
      <trkpt lat="42.1178" lon="9.10869">
        <ele>1144.59</ele>
        <time>2022-06-13T08:40:34Z</time>
      </trkpt>
      <trkpt lat="42.11779" lon="9.10867">
        <ele>1149.39</ele>
        <time>2022-06-13T08:40:36Z</time>
      </trkpt>
      <trkpt lat="42.11779" lon="9.10866">
        <ele>1146.03</ele>
        <time>2022-06-13T08:40:37Z</time>
      </trkpt>
      <trkpt lat="42.11777" lon="9.10864">
        <ele>1143.14</ele>
        <time>2022-06-13T08:40:39Z</time>
      </trkpt>
      <trkpt lat="42.11777" lon="9.10863">
        <ele>1158.05</ele>
        <time>2022-06-13T08:40:40Z</time>
      </trkpt>
      <trkpt lat="42.11776" lon="9.10866">
        <ele>1153.72</ele>
        <time>2022-06-13T08:40:42Z</time>
      </trkpt>
      <trkpt lat="42.11777" lon="9.10872">
        <ele>1148.43</ele>
        <time>2022-06-13T08:40:45Z</time>
      </trkpt>
      <trkpt lat="42.11779" lon="9.10882">
        <ele>1146.99</ele>
        <time>2022-06-13T08:41:04Z</time>
      </trkpt>
      <trkpt lat="42.1178" lon="9.10883">
        <ele>1145.55</ele>
        <time>2022-06-13T08:41:31Z</time>
      </trkpt>
      <trkpt lat="42.11779" lon="9.109">
        <ele>1142.66</ele>
        <time>2022-06-13T08:41:52Z</time>
      </trkpt>
      <trkpt lat="42.11769" lon="9.10908">
        <ele>1141.22</ele>
        <time>2022-06-13T08:42:12Z</time>
      </trkpt>
      <trkpt lat="42.1176" lon="9.1091">
        <ele>1139.3</ele>
        <time>2022-06-13T08:42:34Z</time>
      </trkpt>
      <trkpt lat="42.11756" lon="9.10913">
        <ele>1137.38</ele>
        <time>2022-06-13T08:42:54Z</time>
      </trkpt>
      <trkpt lat="42.11745" lon="9.10919">
        <ele>1134.97</ele>
        <time>2022-06-13T08:43:20Z</time>
      </trkpt>
      <trkpt lat="42.11741" lon="9.10934">
        <ele>1134.49</ele>
        <time>2022-06-13T08:43:45Z</time>
      </trkpt>
      <trkpt lat="42.11735" lon="9.10938">
        <ele>1132.57</ele>
        <time>2022-06-13T08:44:08Z</time>
      </trkpt>
      <trkpt lat="42.11733" lon="9.10941">
        <ele>1130.17</ele>
        <time>2022-06-13T08:44:30Z</time>
      </trkpt>
      <trkpt lat="42.1173" lon="9.10944">
        <ele>1128.73</ele>
        <time>2022-06-13T08:44:42Z</time>
      </trkpt>
      <trkpt lat="42.11723" lon="9.10951">
        <ele>1127.28</ele>
        <time>2022-06-13T08:45:05Z</time>
      </trkpt>
      <trkpt lat="42.11723" lon="9.10959">
        <ele>1124.88</ele>
        <time>2022-06-13T08:45:28Z</time>
      </trkpt>
      <trkpt lat="42.11715" lon="9.10973">
        <ele>1122.96</ele>
        <time>2022-06-13T08:45:47Z</time>
      </trkpt>
      <trkpt lat="42.117" lon="9.10981">
        <ele>1120.55</ele>
        <time>2022-06-13T08:46:11Z</time>
      </trkpt>
      <trkpt lat="42.11702" lon="9.10996">
        <ele>1118.15</ele>
        <time>2022-06-13T08:46:33Z</time>
      </trkpt>
      <trkpt lat="42.11686" lon="9.11009">
        <ele>1117.19</ele>
        <time>2022-06-13T08:46:55Z</time>
      </trkpt>
      <trkpt lat="42.11673" lon="9.11018">
        <ele>1116.23</ele>
        <time>2022-06-13T08:47:13Z</time>
      </trkpt>
      <trkpt lat="42.11664" lon="9.11024">
        <ele>1114.31</ele>
        <time>2022-06-13T08:47:30Z</time>
      </trkpt>
      <trkpt lat="42.11663" lon="9.11035">
        <ele>1113.34</ele>
        <time>2022-06-13T08:47:49Z</time>
      </trkpt>
      <trkpt lat="42.11661" lon="9.11043">
        <ele>1111.42</ele>
        <time>2022-06-13T08:48:12Z</time>
      </trkpt>
      <trkpt lat="42.11662" lon="9.1105">
        <ele>1109.98</ele>
        <time>2022-06-13T08:48:40Z</time>
      </trkpt>
      <trkpt lat="42.11661" lon="9.11053">
        <ele>1108.06</ele>
        <time>2022-06-13T08:49:01Z</time>
      </trkpt>
      <trkpt lat="42.11658" lon="9.11056">
        <ele>1107.58</ele>
        <time>2022-06-13T08:49:23Z</time>
      </trkpt>
      <trkpt lat="42.11653" lon="9.11047">
        <ele>1105.65</ele>
        <time>2022-06-13T08:49:50Z</time>
      </trkpt>
      <trkpt lat="42.11638" lon="9.11073">
        <ele>1104.21</ele>
        <time>2022-06-13T08:50:14Z</time>
      </trkpt>
      <trkpt lat="42.11632" lon="9.11085">
        <ele>1102.29</ele>
        <time>2022-06-13T08:50:40Z</time>
      </trkpt>
      <trkpt lat="42.11621" lon="9.11109">
        <ele>1102.29</ele>
        <time>2022-06-13T08:51:08Z</time>
      </trkpt>
      <trkpt lat="42.11618" lon="9.11113">
        <ele>1101.81</ele>
        <time>2022-06-13T08:51:31Z</time>
      </trkpt>
      <trkpt lat="42.11624" lon="9.11125">
        <ele>1099.4</ele>
        <time>2022-06-13T08:51:52Z</time>
      </trkpt>
      <trkpt lat="42.11608" lon="9.11142">
        <ele>1098.92</ele>
        <time>2022-06-13T08:52:10Z</time>
      </trkpt>
      <trkpt lat="42.11611" lon="9.1116">
        <ele>1097</ele>
        <time>2022-06-13T08:52:30Z</time>
      </trkpt>
      <trkpt lat="42.11618" lon="9.11177">
        <ele>1095.08</ele>
        <time>2022-06-13T08:52:50Z</time>
      </trkpt>
      <trkpt lat="42.11622" lon="9.11189">
        <ele>1094.12</ele>
        <time>2022-06-13T08:53:09Z</time>
      </trkpt>
      <trkpt lat="42.1163" lon="9.11197">
        <ele>1092.68</ele>
        <time>2022-06-13T08:53:28Z</time>
      </trkpt>
      <trkpt lat="42.11637" lon="9.11214">
        <ele>1092.2</ele>
        <time>2022-06-13T08:53:50Z</time>
      </trkpt>
      <trkpt lat="42.1165" lon="9.11231">
        <ele>1091.23</ele>
        <time>2022-06-13T08:54:12Z</time>
      </trkpt>
      <trkpt lat="42.11659" lon="9.11237">
        <ele>1090.75</ele>
        <time>2022-06-13T08:54:32Z</time>
      </trkpt>
      <trkpt lat="42.11658" lon="9.11239">
        <ele>1091.71</ele>
        <time>2022-06-13T08:54:40Z</time>
      </trkpt>
      <trkpt lat="42.11668" lon="9.11255">
        <ele>1092.68</ele>
        <time>2022-06-13T08:55:06Z</time>
      </trkpt>
      <trkpt lat="42.11671" lon="9.1128">
        <ele>1094.12</ele>
        <time>2022-06-13T08:55:28Z</time>
      </trkpt>
      <trkpt lat="42.11681" lon="9.11302">
        <ele>1092.68</ele>
        <time>2022-06-13T08:55:48Z</time>
      </trkpt>
      <trkpt lat="42.11697" lon="9.11332">
        <ele>1092.2</ele>
        <time>2022-06-13T08:56:09Z</time>
      </trkpt>
      <trkpt lat="42.117" lon="9.11337">
        <ele>1092.2</ele>
        <time>2022-06-13T08:56:12Z</time>
      </trkpt>
      <trkpt lat="42.11713" lon="9.11366">
        <ele>1090.75</ele>
        <time>2022-06-13T08:56:35Z</time>
      </trkpt>
      <trkpt lat="42.1172" lon="9.11389">
        <ele>1089.31</ele>
        <time>2022-06-13T08:57:01Z</time>
      </trkpt>
      <trkpt lat="42.11727" lon="9.11421">
        <ele>1086.91</ele>
        <time>2022-06-13T08:57:27Z</time>
      </trkpt>
      <trkpt lat="42.11733" lon="9.11452">
        <ele>1084.5</ele>
        <time>2022-06-13T08:57:53Z</time>
      </trkpt>
      <trkpt lat="42.11741" lon="9.11492">
        <ele>1082.1</ele>
        <time>2022-06-13T08:58:21Z</time>
      </trkpt>
      <trkpt lat="42.11753" lon="9.11539">
        <ele>1082.1</ele>
        <time>2022-06-13T08:58:48Z</time>
      </trkpt>
      <trkpt lat="42.11743" lon="9.1157">
        <ele>1078.74</ele>
        <time>2022-06-13T08:59:10Z</time>
      </trkpt>
      <trkpt lat="42.11741" lon="9.11608">
        <ele>1077.29</ele>
        <time>2022-06-13T08:59:37Z</time>
      </trkpt>
      <trkpt lat="42.1174" lon="9.11633">
        <ele>1075.37</ele>
        <time>2022-06-13T09:00:03Z</time>
      </trkpt>
      <trkpt lat="42.11722" lon="9.11669">
        <ele>1072.49</ele>
        <time>2022-06-13T09:00:31Z</time>
      </trkpt>
      <trkpt lat="42.11712" lon="9.1168">
        <ele>1071.05</ele>
        <time>2022-06-13T09:00:57Z</time>
      </trkpt>
      <trkpt lat="42.11728" lon="9.11705">
        <ele>1069.12</ele>
        <time>2022-06-13T09:01:19Z</time>
      </trkpt>
      <trkpt lat="42.11743" lon="9.11725">
        <ele>1068.64</ele>
        <time>2022-06-13T09:01:44Z</time>
      </trkpt>
      <trkpt lat="42.11762" lon="9.11749">
        <ele>1068.64</ele>
        <time>2022-06-13T09:02:06Z</time>
      </trkpt>
      <trkpt lat="42.11753" lon="9.11787">
        <ele>1065.76</ele>
        <time>2022-06-13T09:02:30Z</time>
      </trkpt>
      <trkpt lat="42.11756" lon="9.11821">
        <ele>1066.24</ele>
        <time>2022-06-13T09:03:00Z</time>
      </trkpt>
      <trkpt lat="42.11759" lon="9.11845">
        <ele>1064.32</ele>
        <time>2022-06-13T09:03:21Z</time>
      </trkpt>
      <trkpt lat="42.11759" lon="9.11866">
        <ele>1063.84</ele>
        <time>2022-06-13T09:03:43Z</time>
      </trkpt>
      <trkpt lat="42.11759" lon="9.11904">
        <ele>1064.8</ele>
        <time>2022-06-13T09:04:03Z</time>
      </trkpt>
      <trkpt lat="42.11779" lon="9.11926">
        <ele>1063.36</ele>
        <time>2022-06-13T09:04:26Z</time>
      </trkpt>
      <trkpt lat="42.11792" lon="9.11955">
        <ele>1061.91</ele>
        <time>2022-06-13T09:04:46Z</time>
      </trkpt>
      <trkpt lat="42.11797" lon="9.11991">
        <ele>1060.95</ele>
        <time>2022-06-13T09:05:11Z</time>
      </trkpt>
      <trkpt lat="42.11801" lon="9.12024">
        <ele>1059.99</ele>
        <time>2022-06-13T09:05:36Z</time>
      </trkpt>
      <trkpt lat="42.11822" lon="9.12035">
        <ele>1058.55</ele>
        <time>2022-06-13T09:05:56Z</time>
      </trkpt>
      <trkpt lat="42.11849" lon="9.12054">
        <ele>1056.63</ele>
        <time>2022-06-13T09:06:20Z</time>
      </trkpt>
      <trkpt lat="42.11861" lon="9.12067">
        <ele>1056.15</ele>
        <time>2022-06-13T09:06:35Z</time>
      </trkpt>
      <trkpt lat="42.11862" lon="9.1207">
        <ele>1054.7</ele>
        <time>2022-06-13T09:06:38Z</time>
      </trkpt>
      <trkpt lat="42.11863" lon="9.12072">
        <ele>1057.59</ele>
        <time>2022-06-13T09:06:40Z</time>
      </trkpt>
      <trkpt lat="42.11866" lon="9.12082">
        <ele>1054.22</ele>
        <time>2022-06-13T09:06:52Z</time>
      </trkpt>
      <trkpt lat="42.11885" lon="9.12093">
        <ele>1053.74</ele>
        <time>2022-06-13T09:07:16Z</time>
      </trkpt>
      <trkpt lat="42.11892" lon="9.12101">
        <ele>1053.26</ele>
        <time>2022-06-13T09:07:27Z</time>
      </trkpt>
      <trkpt lat="42.11896" lon="9.12106">
        <ele>1052.78</ele>
        <time>2022-06-13T09:07:30Z</time>
      </trkpt>
      <trkpt lat="42.11903" lon="9.12133">
        <ele>1049.42</ele>
        <time>2022-06-13T09:07:50Z</time>
      </trkpt>
      <trkpt lat="42.11903" lon="9.12134">
        <ele>1052.3</ele>
        <time>2022-06-13T09:07:51Z</time>
      </trkpt>
      <trkpt lat="42.11905" lon="9.1215">
        <ele>1048.94</ele>
        <time>2022-06-13T09:08:04Z</time>
      </trkpt>
      <trkpt lat="42.11904" lon="9.12152">
        <ele>1048.94</ele>
        <time>2022-06-13T09:08:05Z</time>
      </trkpt>
      <trkpt lat="42.11905" lon="9.12155">
        <ele>1050.38</ele>
        <time>2022-06-13T09:08:08Z</time>
      </trkpt>
      <trkpt lat="42.11911" lon="9.12171">
        <ele>1048.94</ele>
        <time>2022-06-13T09:08:23Z</time>
      </trkpt>
      <trkpt lat="42.11925" lon="9.12218">
        <ele>1046.53</ele>
        <time>2022-06-13T09:08:45Z</time>
      </trkpt>
      <trkpt lat="42.11924" lon="9.12235">
        <ele>1045.57</ele>
        <time>2022-06-13T09:09:02Z</time>
      </trkpt>
      <trkpt lat="42.11926" lon="9.1225">
        <ele>1044.13</ele>
        <time>2022-06-13T09:09:14Z</time>
      </trkpt>
      <trkpt lat="42.1194" lon="9.12284">
        <ele>1042.21</ele>
        <time>2022-06-13T09:09:34Z</time>
      </trkpt>
      <trkpt lat="42.11946" lon="9.12293">
        <ele>1041.25</ele>
        <time>2022-06-13T09:09:45Z</time>
      </trkpt>
      <trkpt lat="42.11948" lon="9.123">
        <ele>1040.76</ele>
        <time>2022-06-13T09:09:50Z</time>
      </trkpt>
      <trkpt lat="42.11956" lon="9.12315">
        <ele>1040.28</ele>
        <time>2022-06-13T09:10:04Z</time>
      </trkpt>
      <trkpt lat="42.11962" lon="9.12322">
        <ele>1038.84</ele>
        <time>2022-06-13T09:10:27Z</time>
      </trkpt>
      <trkpt lat="42.11987" lon="9.12324">
        <ele>1036.92</ele>
        <time>2022-06-13T09:10:48Z</time>
      </trkpt>
      <trkpt lat="42.1201" lon="9.12341">
        <ele>1035</ele>
        <time>2022-06-13T09:11:10Z</time>
      </trkpt>
      <trkpt lat="42.12018" lon="9.12356">
        <ele>1033.55</ele>
        <time>2022-06-13T09:11:30Z</time>
      </trkpt>
      <trkpt lat="42.1203" lon="9.12371">
        <ele>1032.11</ele>
        <time>2022-06-13T09:11:58Z</time>
      </trkpt>
      <trkpt lat="42.12043" lon="9.12387">
        <ele>1030.67</ele>
        <time>2022-06-13T09:12:22Z</time>
      </trkpt>
      <trkpt lat="42.12047" lon="9.12402">
        <ele>1030.19</ele>
        <time>2022-06-13T09:12:44Z</time>
      </trkpt>
      <trkpt lat="42.12056" lon="9.12418">
        <ele>1028.75</ele>
        <time>2022-06-13T09:13:03Z</time>
      </trkpt>
      <trkpt lat="42.12065" lon="9.12433">
        <ele>1027.79</ele>
        <time>2022-06-13T09:13:22Z</time>
      </trkpt>
      <trkpt lat="42.12066" lon="9.12436">
        <ele>1026.83</ele>
        <time>2022-06-13T09:13:42Z</time>
      </trkpt>
      <trkpt lat="42.12072" lon="9.12458">
        <ele>1025.38</ele>
        <time>2022-06-13T09:14:00Z</time>
      </trkpt>
      <trkpt lat="42.12074" lon="9.12486">
        <ele>1022.98</ele>
        <time>2022-06-13T09:14:18Z</time>
      </trkpt>
      <trkpt lat="42.12074" lon="9.12489">
        <ele>1022.98</ele>
        <time>2022-06-13T09:14:19Z</time>
      </trkpt>
      <trkpt lat="42.12083" lon="9.12511">
        <ele>1022.5</ele>
        <time>2022-06-13T09:14:32Z</time>
      </trkpt>
      <trkpt lat="42.12084" lon="9.12525">
        <ele>1021.06</ele>
        <time>2022-06-13T09:14:58Z</time>
      </trkpt>
      <trkpt lat="42.12077" lon="9.12523">
        <ele>1020.1</ele>
        <time>2022-06-13T09:15:28Z</time>
      </trkpt>
      <trkpt lat="42.12066" lon="9.12522">
        <ele>1018.17</ele>
        <time>2022-06-13T09:15:48Z</time>
      </trkpt>
      <trkpt lat="42.12053" lon="9.12531">
        <ele>1016.25</ele>
        <time>2022-06-13T09:16:06Z</time>
      </trkpt>
      <trkpt lat="42.1205" lon="9.12559">
        <ele>1013.37</ele>
        <time>2022-06-13T09:16:28Z</time>
      </trkpt>
      <trkpt lat="42.12051" lon="9.12581">
        <ele>1011.44</ele>
        <time>2022-06-13T09:16:41Z</time>
      </trkpt>
      <trkpt lat="42.12056" lon="9.12607">
        <ele>1010</ele>
        <time>2022-06-13T09:17:01Z</time>
      </trkpt>
      <trkpt lat="42.12063" lon="9.12634">
        <ele>1009.04</ele>
        <time>2022-06-13T09:17:19Z</time>
      </trkpt>
      <trkpt lat="42.12065" lon="9.12636">
        <ele>1009.04</ele>
        <time>2022-06-13T09:17:21Z</time>
      </trkpt>
      <trkpt lat="42.12071" lon="9.12659">
        <ele>1006.64</ele>
        <time>2022-06-13T09:17:40Z</time>
      </trkpt>
      <trkpt lat="42.12076" lon="9.12683">
        <ele>1005.2</ele>
        <time>2022-06-13T09:17:58Z</time>
      </trkpt>
      <trkpt lat="42.12085" lon="9.12707">
        <ele>1003.27</ele>
        <time>2022-06-13T09:18:19Z</time>
      </trkpt>
      <trkpt lat="42.12091" lon="9.12732">
        <ele>1001.35</ele>
        <time>2022-06-13T09:18:38Z</time>
      </trkpt>
      <trkpt lat="42.12101" lon="9.12754">
        <ele>1000.39</ele>
        <time>2022-06-13T09:18:58Z</time>
      </trkpt>
      <trkpt lat="42.12118" lon="9.12776">
        <ele>997.02</ele>
        <time>2022-06-13T09:19:20Z</time>
      </trkpt>
      <trkpt lat="42.12133" lon="9.12788">
        <ele>996.06</ele>
        <time>2022-06-13T09:19:35Z</time>
      </trkpt>
      <trkpt lat="42.12152" lon="9.12796">
        <ele>995.58</ele>
        <time>2022-06-13T09:19:51Z</time>
      </trkpt>
      <trkpt lat="42.12167" lon="9.12796">
        <ele>994.62</ele>
        <time>2022-06-13T09:20:08Z</time>
      </trkpt>
      <trkpt lat="42.12175" lon="9.12805">
        <ele>994.62</ele>
        <time>2022-06-13T09:20:22Z</time>
      </trkpt>
      <trkpt lat="42.12177" lon="9.12812">
        <ele>994.62</ele>
        <time>2022-06-13T09:20:26Z</time>
      </trkpt>
      <trkpt lat="42.1218" lon="9.12815">
        <ele>994.14</ele>
        <time>2022-06-13T09:20:29Z</time>
      </trkpt>
      <trkpt lat="42.12182" lon="9.12823">
        <ele>993.66</ele>
        <time>2022-06-13T09:20:34Z</time>
      </trkpt>
      <trkpt lat="42.12194" lon="9.12837">
        <ele>992.22</ele>
        <time>2022-06-13T09:20:51Z</time>
      </trkpt>
      <trkpt lat="42.12202" lon="9.12852">
        <ele>991.74</ele>
        <time>2022-06-13T09:21:05Z</time>
      </trkpt>
      <trkpt lat="42.12205" lon="9.12855">
        <ele>990.78</ele>
        <time>2022-06-13T09:21:09Z</time>
      </trkpt>
      <trkpt lat="42.12223" lon="9.12867">
        <ele>990.78</ele>
        <time>2022-06-13T09:21:27Z</time>
      </trkpt>
      <trkpt lat="42.1224" lon="9.12865">
        <ele>989.81</ele>
        <time>2022-06-13T09:21:43Z</time>
      </trkpt>
      <trkpt lat="42.12249" lon="9.12856">
        <ele>988.37</ele>
        <time>2022-06-13T09:22:01Z</time>
      </trkpt>
      <trkpt lat="42.12264" lon="9.12869">
        <ele>987.89</ele>
        <time>2022-06-13T09:22:16Z</time>
      </trkpt>
      <trkpt lat="42.12276" lon="9.12869">
        <ele>986.93</ele>
        <time>2022-06-13T09:22:32Z</time>
      </trkpt>
      <trkpt lat="42.12273" lon="9.12867">
        <ele>986.93</ele>
        <time>2022-06-13T09:22:43Z</time>
      </trkpt>
      <trkpt lat="42.12275" lon="9.12865">
        <ele>986.45</ele>
        <time>2022-06-13T09:23:06Z</time>
      </trkpt>
      <trkpt lat="42.12283" lon="9.12836">
        <ele>987.89</ele>
        <time>2022-06-13T09:23:29Z</time>
      </trkpt>
      <trkpt lat="42.12291" lon="9.12859">
        <ele>986.45</ele>
        <time>2022-06-13T09:24:07Z</time>
      </trkpt>
      <trkpt lat="42.12302" lon="9.12862">
        <ele>985.97</ele>
        <time>2022-06-13T09:24:28Z</time>
      </trkpt>
      <trkpt lat="42.12321" lon="9.12848">
        <ele>985.49</ele>
        <time>2022-06-13T09:24:43Z</time>
      </trkpt>
      <trkpt lat="42.12326" lon="9.12844">
        <ele>985.49</ele>
        <time>2022-06-13T09:24:47Z</time>
      </trkpt>
      <trkpt lat="42.12333" lon="9.12838">
        <ele>984.53</ele>
        <time>2022-06-13T09:25:01Z</time>
      </trkpt>
      <trkpt lat="42.12345" lon="9.12835">
        <ele>983.57</ele>
        <time>2022-06-13T09:25:21Z</time>
      </trkpt>
      <trkpt lat="42.12359" lon="9.12828">
        <ele>982.12</ele>
        <time>2022-06-13T09:25:39Z</time>
      </trkpt>
      <trkpt lat="42.1237" lon="9.12826">
        <ele>981.64</ele>
        <time>2022-06-13T09:25:50Z</time>
      </trkpt>
      <trkpt lat="42.12403" lon="9.12834">
        <ele>981.16</ele>
        <time>2022-06-13T09:26:08Z</time>
      </trkpt>
      <trkpt lat="42.12412" lon="9.12845">
        <ele>980.68</ele>
        <time>2022-06-13T09:26:15Z</time>
      </trkpt>
      <trkpt lat="42.12417" lon="9.12852">
        <ele>980.2</ele>
        <time>2022-06-13T09:26:21Z</time>
      </trkpt>
      <trkpt lat="42.12428" lon="9.12865">
        <ele>978.76</ele>
        <time>2022-06-13T09:26:41Z</time>
      </trkpt>
      <trkpt lat="42.12439" lon="9.12863">
        <ele>978.28</ele>
        <time>2022-06-13T09:26:56Z</time>
      </trkpt>
      <trkpt lat="42.12457" lon="9.12868">
        <ele>977.32</ele>
        <time>2022-06-13T09:27:17Z</time>
      </trkpt>
      <trkpt lat="42.12483" lon="9.12883">
        <ele>976.36</ele>
        <time>2022-06-13T09:27:37Z</time>
      </trkpt>
      <trkpt lat="42.12501" lon="9.12892">
        <ele>975.39</ele>
        <time>2022-06-13T09:27:56Z</time>
      </trkpt>
      <trkpt lat="42.12517" lon="9.12898">
        <ele>974.43</ele>
        <time>2022-06-13T09:28:13Z</time>
      </trkpt>
      <trkpt lat="42.12534" lon="9.12899">
        <ele>973.47</ele>
        <time>2022-06-13T09:28:31Z</time>
      </trkpt>
      <trkpt lat="42.12545" lon="9.12901">
        <ele>972.51</ele>
        <time>2022-06-13T09:28:51Z</time>
      </trkpt>
      <trkpt lat="42.12553" lon="9.12902">
        <ele>971.55</ele>
        <time>2022-06-13T09:29:02Z</time>
      </trkpt>
      <trkpt lat="42.12557" lon="9.12904">
        <ele>970.59</ele>
        <time>2022-06-13T09:29:06Z</time>
      </trkpt>
      <trkpt lat="42.12588" lon="9.12919">
        <ele>969.15</ele>
        <time>2022-06-13T09:29:29Z</time>
      </trkpt>
      <trkpt lat="42.12607" lon="9.12921">
        <ele>967.7</ele>
        <time>2022-06-13T09:29:46Z</time>
      </trkpt>
      <trkpt lat="42.12619" lon="9.12919">
        <ele>967.22</ele>
        <time>2022-06-13T09:30:03Z</time>
      </trkpt>
      <trkpt lat="42.12635" lon="9.12918">
        <ele>966.74</ele>
        <time>2022-06-13T09:30:24Z</time>
      </trkpt>
      <trkpt lat="42.12642" lon="9.12921">
        <ele>964.34</ele>
        <time>2022-06-13T09:30:43Z</time>
      </trkpt>
      <trkpt lat="42.12636" lon="9.12929">
        <ele>961.46</ele>
        <time>2022-06-13T09:31:01Z</time>
      </trkpt>
      <trkpt lat="42.12627" lon="9.12952">
        <ele>959.05</ele>
        <time>2022-06-13T09:31:20Z</time>
      </trkpt>
      <trkpt lat="42.12628" lon="9.1296">
        <ele>958.09</ele>
        <time>2022-06-13T09:31:45Z</time>
      </trkpt>
      <trkpt lat="42.12623" lon="9.12977">
        <ele>957.61</ele>
        <time>2022-06-13T09:32:11Z</time>
      </trkpt>
      <trkpt lat="42.12639" lon="9.12995">
        <ele>957.61</ele>
        <time>2022-06-13T09:32:31Z</time>
      </trkpt>
      <trkpt lat="42.12644" lon="9.13011">
        <ele>960.01</ele>
        <time>2022-06-13T09:32:50Z</time>
      </trkpt>
      <trkpt lat="42.12643" lon="9.13024">
        <ele>960.49</ele>
        <time>2022-06-13T09:33:08Z</time>
      </trkpt>
      <trkpt lat="42.12639" lon="9.13026">
        <ele>959.05</ele>
        <time>2022-06-13T09:33:17Z</time>
      </trkpt>
      <trkpt lat="42.12627" lon="9.13036">
        <ele>958.09</ele>
        <time>2022-06-13T09:33:39Z</time>
      </trkpt>
      <trkpt lat="42.12619" lon="9.13044">
        <ele>958.09</ele>
        <time>2022-06-13T09:33:52Z</time>
      </trkpt>
      <trkpt lat="42.12597" lon="9.13056">
        <ele>959.05</ele>
        <time>2022-06-13T09:34:15Z</time>
      </trkpt>
      <trkpt lat="42.12579" lon="9.1306">
        <ele>960.49</ele>
        <time>2022-06-13T09:34:32Z</time>
      </trkpt>
      <trkpt lat="42.12561" lon="9.13064">
        <ele>961.94</ele>
        <time>2022-06-13T09:34:54Z</time>
      </trkpt>
      <trkpt lat="42.12562" lon="9.13085">
        <ele>959.05</ele>
        <time>2022-06-13T09:35:16Z</time>
      </trkpt>
      <trkpt lat="42.12565" lon="9.13094">
        <ele>959.05</ele>
        <time>2022-06-13T09:35:38Z</time>
      </trkpt>
      <trkpt lat="42.12568" lon="9.13094">
        <ele>958.57</ele>
        <time>2022-06-13T09:36:14Z</time>
      </trkpt>
      <trkpt lat="42.12575" lon="9.13113">
        <ele>957.61</ele>
        <time>2022-06-13T09:36:41Z</time>
      </trkpt>
      <trkpt lat="42.12589" lon="9.13122">
        <ele>956.17</ele>
        <time>2022-06-13T09:37:03Z</time>
      </trkpt>
      <trkpt lat="42.12614" lon="9.13129">
        <ele>956.17</ele>
        <time>2022-06-13T09:37:27Z</time>
      </trkpt>
      <trkpt lat="42.12632" lon="9.13129">
        <ele>957.13</ele>
        <time>2022-06-13T09:37:48Z</time>
      </trkpt>
      <trkpt lat="42.1265" lon="9.13146">
        <ele>957.61</ele>
        <time>2022-06-13T09:38:10Z</time>
      </trkpt>
      <trkpt lat="42.12666" lon="9.13166">
        <ele>956.17</ele>
        <time>2022-06-13T09:38:27Z</time>
      </trkpt>
      <trkpt lat="42.12677" lon="9.13179">
        <ele>955.21</ele>
        <time>2022-06-13T09:38:43Z</time>
      </trkpt>
      <trkpt lat="42.12681" lon="9.13192">
        <ele>954.73</ele>
        <time>2022-06-13T09:38:55Z</time>
      </trkpt>
      <trkpt lat="42.12684" lon="9.13196">
        <ele>954.73</ele>
        <time>2022-06-13T09:38:58Z</time>
      </trkpt>
      <trkpt lat="42.12685" lon="9.13198">
        <ele>954.73</ele>
        <time>2022-06-13T09:39:01Z</time>
      </trkpt>
      <trkpt lat="42.12683" lon="9.13224">
        <ele>954.25</ele>
        <time>2022-06-13T09:39:20Z</time>
      </trkpt>
      <trkpt lat="42.1269" lon="9.13239">
        <ele>952.8</ele>
        <time>2022-06-13T09:39:33Z</time>
      </trkpt>
      <trkpt lat="42.12701" lon="9.13275">
        <ele>951.36</ele>
        <time>2022-06-13T09:39:56Z</time>
      </trkpt>
      <trkpt lat="42.12697" lon="9.13292">
        <ele>950.4</ele>
        <time>2022-06-13T09:40:19Z</time>
      </trkpt>
      <trkpt lat="42.12693" lon="9.13296">
        <ele>949.92</ele>
        <time>2022-06-13T09:40:51Z</time>
      </trkpt>
      <trkpt lat="42.12711" lon="9.13279">
        <ele>948.96</ele>
        <time>2022-06-13T09:41:09Z</time>
      </trkpt>
      <trkpt lat="42.12719" lon="9.1327">
        <ele>948.48</ele>
        <time>2022-06-13T09:41:15Z</time>
      </trkpt>
      <trkpt lat="42.12733" lon="9.13248">
        <ele>947.04</ele>
        <time>2022-06-13T09:41:28Z</time>
      </trkpt>
      <trkpt lat="42.12733" lon="9.13239">
        <ele>946.56</ele>
        <time>2022-06-13T09:41:33Z</time>
      </trkpt>
      <trkpt lat="42.12741" lon="9.13226">
        <ele>945.59</ele>
        <time>2022-06-13T09:41:48Z</time>
      </trkpt>
      <trkpt lat="42.12745" lon="9.13262">
        <ele>942.71</ele>
        <time>2022-06-13T09:42:11Z</time>
      </trkpt>
      <trkpt lat="42.1275" lon="9.13287">
        <ele>942.71</ele>
        <time>2022-06-13T09:42:27Z</time>
      </trkpt>
      <trkpt lat="42.12757" lon="9.13318">
        <ele>940.79</ele>
        <time>2022-06-13T09:42:45Z</time>
      </trkpt>
      <trkpt lat="42.12757" lon="9.13325">
        <ele>939.83</ele>
        <time>2022-06-13T09:42:49Z</time>
      </trkpt>
      <trkpt lat="42.12762" lon="9.13333">
        <ele>938.38</ele>
        <time>2022-06-13T09:42:57Z</time>
      </trkpt>
      <trkpt lat="42.12767" lon="9.13333">
        <ele>937.9</ele>
        <time>2022-06-13T09:43:02Z</time>
      </trkpt>
      <trkpt lat="42.12786" lon="9.1332">
        <ele>934.54</ele>
        <time>2022-06-13T09:43:22Z</time>
      </trkpt>
      <trkpt lat="42.12777" lon="9.13344">
        <ele>932.62</ele>
        <time>2022-06-13T09:43:42Z</time>
      </trkpt>
      <trkpt lat="42.12779" lon="9.13353">
        <ele>931.17</ele>
        <time>2022-06-13T09:43:46Z</time>
      </trkpt>
      <trkpt lat="42.12787" lon="9.13363">
        <ele>930.69</ele>
        <time>2022-06-13T09:43:55Z</time>
      </trkpt>
      <trkpt lat="42.12792" lon="9.13367">
        <ele>930.21</ele>
        <time>2022-06-13T09:44:00Z</time>
      </trkpt>
      <trkpt lat="42.12808" lon="9.13383">
        <ele>927.81</ele>
        <time>2022-06-13T09:44:15Z</time>
      </trkpt>
      <trkpt lat="42.12815" lon="9.13389">
        <ele>925.89</ele>
        <time>2022-06-13T09:44:35Z</time>
      </trkpt>
      <trkpt lat="42.12814" lon="9.13389">
        <ele>925.41</ele>
        <time>2022-06-13T09:45:07Z</time>
      </trkpt>
      <trkpt lat="42.12818" lon="9.13391">
        <ele>924.93</ele>
        <time>2022-06-13T09:45:20Z</time>
      </trkpt>
      <trkpt lat="42.12824" lon="9.13391">
        <ele>924.45</ele>
        <time>2022-06-13T09:45:25Z</time>
      </trkpt>
      <trkpt lat="42.12834" lon="9.13387">
        <ele>923.96</ele>
        <time>2022-06-13T09:45:32Z</time>
      </trkpt>
      <trkpt lat="42.12846" lon="9.13374">
        <ele>923.48</ele>
        <time>2022-06-13T09:45:49Z</time>
      </trkpt>
      <trkpt lat="42.1285" lon="9.13369">
        <ele>923.48</ele>
        <time>2022-06-13T09:46:13Z</time>
      </trkpt>
      <trkpt lat="42.12851" lon="9.13368">
        <ele>922.52</ele>
        <time>2022-06-13T09:46:22Z</time>
      </trkpt>
      <trkpt lat="42.12839" lon="9.13375">
        <ele>924.45</ele>
        <time>2022-06-13T09:46:42Z</time>
      </trkpt>
      <trkpt lat="42.12832" lon="9.13391">
        <ele>923.96</ele>
        <time>2022-06-13T09:47:06Z</time>
      </trkpt>
      <trkpt lat="42.12842" lon="9.13402">
        <ele>923</ele>
        <time>2022-06-13T09:47:21Z</time>
      </trkpt>
      <trkpt lat="42.12847" lon="9.13407">
        <ele>923</ele>
        <time>2022-06-13T09:47:43Z</time>
      </trkpt>
      <trkpt lat="42.12849" lon="9.13401">
        <ele>922.52</ele>
        <time>2022-06-13T09:48:06Z</time>
      </trkpt>
      <trkpt lat="42.12845" lon="9.13395">
        <ele>923.96</ele>
        <time>2022-06-13T09:48:16Z</time>
      </trkpt>
      <trkpt lat="42.12838" lon="9.13396">
        <ele>923.48</ele>
        <time>2022-06-13T09:48:33Z</time>
      </trkpt>
      <trkpt lat="42.12833" lon="9.13394">
        <ele>923</ele>
        <time>2022-06-13T09:49:14Z</time>
      </trkpt>
      <trkpt lat="42.1283" lon="9.13395">
        <ele>923</ele>
        <time>2022-06-13T09:49:40Z</time>
      </trkpt>
      <trkpt lat="42.12828" lon="9.13394">
        <ele>921.56</ele>
        <time>2022-06-13T09:50:09Z</time>
      </trkpt>
      <trkpt lat="42.12829" lon="9.13395">
        <ele>921.56</ele>
        <time>2022-06-13T09:50:39Z</time>
      </trkpt>
      <trkpt lat="42.12826" lon="9.13395">
        <ele>923</ele>
        <time>2022-06-13T09:51:02Z</time>
      </trkpt>
      <trkpt lat="42.12831" lon="9.13395">
        <ele>923.48</ele>
        <time>2022-06-13T09:51:54Z</time>
      </trkpt>
      <trkpt lat="42.1283" lon="9.13393">
        <ele>923.96</ele>
        <time>2022-06-13T09:52:12Z</time>
      </trkpt>
      <trkpt lat="42.12832" lon="9.13389">
        <ele>923</ele>
        <time>2022-06-13T09:52:43Z</time>
      </trkpt>
      <trkpt lat="42.12833" lon="9.13388">
        <ele>923</ele>
        <time>2022-06-13T09:52:45Z</time>
      </trkpt>
    </trkseg>
  </trk>
</gpx>